sensor_id;sensor_type;location;lat;lon;timestamp;pressure;altitude;pressure_sealevel;temperature;humidity
68822;BME280;55834;50.870;4.606;2022-09-13T00:00:56;100379.78;;;18.36;49.11
68822;BME280;55834;50.870;4.606;2022-09-13T00:03:23;100380.66;;;18.36;48.94
68822;BME280;55834;50.870;4.606;2022-09-13T00:05:48;100369.97;;;18.36;49.27
68822;BME280;55834;50.870;4.606;2022-09-13T00:08:14;100376.69;;;18.29;49.55
68822;BME280;55834;50.870;4.606;2022-09-13T00:10:41;100377.06;;;18.23;49.57
68822;BME280;55834;50.870;4.606;2022-09-13T00:13:08;100375.28;;;18.23;49.64
68822;BME280;55834;50.870;4.606;2022-09-13T00:15:35;100371.50;;;18.26;49.30
68822;BME280;55834;50.870;4.606;2022-09-13T00:18:01;100372.47;;;18.25;49.47
68822;BME280;55834;50.870;4.606;2022-09-13T00:20:26;100357.50;;;18.22;49.65
68822;BME280;55834;50.870;4.606;2022-09-13T00:22:52;100360.38;;;18.19;49.71
68822;BME280;55834;50.870;4.606;2022-09-13T00:25:18;100354.91;;;18.08;49.91
68822;BME280;55834;50.870;4.606;2022-09-13T00:27:44;100341.44;;;18.10;49.88
68822;BME280;55834;50.870;4.606;2022-09-13T00:30:11;100339.00;;;18.07;49.74
68822;BME280;55834;50.870;4.606;2022-09-13T00:32:36;100343.00;;;17.99;49.56
68822;BME280;55834;50.870;4.606;2022-09-13T00:35:04;100333.94;;;18.02;50.28
68822;BME280;55834;50.870;4.606;2022-09-13T00:37:30;100328.38;;;18.05;50.32
68822;BME280;55834;50.870;4.606;2022-09-13T00:39:56;100330.69;;;17.97;50.65
68822;BME280;55834;50.870;4.606;2022-09-13T00:42:28;100328.66;;;17.88;51.12
68822;BME280;55834;50.870;4.606;2022-09-13T00:45:07;100325.13;;;17.87;50.56
68822;BME280;55834;50.870;4.606;2022-09-13T00:47:39;100323.00;;;17.92;50.87
68822;BME280;55834;50.870;4.606;2022-09-13T00:53:07;100311.47;;;17.92;51.25
68822;BME280;55834;50.870;4.606;2022-09-13T00:55:47;100311.88;;;17.86;51.42
68822;BME280;55834;50.870;4.606;2022-09-13T00:58:18;100307.97;;;17.77;51.60
68822;BME280;55834;50.870;4.606;2022-09-13T01:00:45;100297.13;;;17.80;51.60
68822;BME280;55834;50.870;4.606;2022-09-13T01:03:12;100303.53;;;17.77;52.00
68822;BME280;55834;50.870;4.606;2022-09-13T01:05:45;100308.94;;;17.62;52.29
68822;BME280;55834;50.870;4.606;2022-09-13T01:08:12;100307.91;;;17.64;51.44
68822;BME280;55834;50.870;4.606;2022-09-13T01:10:48;100295.69;;;17.74;51.71
68822;BME280;55834;50.870;4.606;2022-09-13T01:13:20;100291.97;;;17.77;52.02
68822;BME280;55834;50.870;4.606;2022-09-13T01:15:47;100276.50;;;17.82;51.89
68822;BME280;55834;50.870;4.606;2022-09-13T01:18:12;100284.13;;;17.74;52.04
68822;BME280;55834;50.870;4.606;2022-09-13T01:21:05;100279.09;;;17.69;51.84
68822;BME280;55834;50.870;4.606;2022-09-13T01:37:33;100255.91;;;17.84;51.15
68822;BME280;55834;50.870;4.606;2022-09-13T01:42:44;100250.66;;;17.83;51.60
68822;BME280;55834;50.870;4.606;2022-09-13T01:45:25;100253.22;;;17.84;50.81
68822;BME280;55834;50.870;4.606;2022-09-13T01:48:24;100259.00;;;17.64;51.37
68822;BME280;55834;50.870;4.606;2022-09-13T01:50:59;100256.41;;;17.62;51.17
68822;BME280;55834;50.870;4.606;2022-09-13T01:53:57;100266.03;;;17.65;50.76
68822;BME280;55834;50.870;4.606;2022-09-13T01:56:50;100274.91;;;17.65;50.48
68822;BME280;55834;50.870;4.606;2022-09-13T02:02:42;100262.50;;;17.78;51.91
68822;BME280;55834;50.870;4.606;2022-09-13T02:05:18;100263.84;;;17.71;51.86
68822;BME280;55834;50.870;4.606;2022-09-13T02:07:58;100262.97;;;17.71;50.97
68822;BME280;55834;50.870;4.606;2022-09-13T02:10:38;100264.56;;;17.73;50.99
68822;BME280;55834;50.870;4.606;2022-09-13T02:13:10;100259.75;;;17.66;51.50
68822;BME280;55834;50.870;4.606;2022-09-13T02:15:48;100270.09;;;17.57;51.80
68822;BME280;55834;50.870;4.606;2022-09-13T02:18:29;100280.56;;;17.61;51.87
68822;BME280;55834;50.870;4.606;2022-09-13T02:21:03;100285.09;;;17.73;51.51
68822;BME280;55834;50.870;4.606;2022-09-13T02:23:37;100285.56;;;17.79;51.61
68822;BME280;55834;50.870;4.606;2022-09-13T02:26:05;100290.81;;;17.81;50.95
68822;BME280;55834;50.870;4.606;2022-09-13T02:28:38;100290.34;;;17.74;51.15
68822;BME280;55834;50.870;4.606;2022-09-13T02:31:07;100284.72;;;17.79;50.79
68822;BME280;55834;50.870;4.606;2022-09-13T02:33:44;100289.75;;;17.84;50.89
68822;BME280;55834;50.870;4.606;2022-09-13T02:36:16;100289.56;;;17.87;50.34
68822;BME280;55834;50.870;4.606;2022-09-13T02:38:53;100290.19;;;17.90;50.55
68822;BME280;55834;50.870;4.606;2022-09-13T02:41:32;100293.06;;;17.87;50.48
68822;BME280;55834;50.870;4.606;2022-09-13T02:55:21;100319.81;;;17.58;51.56
68822;BME280;55834;50.870;4.606;2022-09-13T02:58:16;100329.00;;;17.54;50.90
68822;BME280;55834;50.870;4.606;2022-09-13T03:00:43;100329.25;;;17.64;51.35
68822;BME280;55834;50.870;4.606;2022-09-13T03:03:11;100333.13;;;17.73;52.30
68822;BME280;55834;50.870;4.606;2022-09-13T03:05:38;100336.41;;;17.78;51.28
68822;BME280;55834;50.870;4.606;2022-09-13T03:08:05;100342.31;;;17.83;50.98
68822;BME280;55834;50.870;4.606;2022-09-13T03:16:42;100322.84;;;17.81;51.02
68822;BME280;55834;50.870;4.606;2022-09-13T03:19:22;100324.47;;;17.84;50.54
68822;BME280;55834;50.870;4.606;2022-09-13T03:22:05;100319.91;;;17.71;50.97
68822;BME280;55834;50.870;4.606;2022-09-13T03:25:06;100314.19;;;17.77;50.87
68822;BME280;55834;50.870;4.606;2022-09-13T03:27:40;100309.50;;;17.81;51.71
68822;BME280;55834;50.870;4.606;2022-09-13T03:30:13;100309.38;;;17.83;51.86
68822;BME280;55834;50.870;4.606;2022-09-13T03:33:02;100314.84;;;17.81;51.65
68822;BME280;55834;50.870;4.606;2022-09-13T03:35:38;100314.41;;;17.60;51.35
68822;BME280;55834;50.870;4.606;2022-09-13T03:38:09;100304.06;;;17.68;51.25
68822;BME280;55834;50.870;4.606;2022-09-13T03:40:47;100305.59;;;17.72;51.98
68822;BME280;55834;50.870;4.606;2022-09-13T03:45:54;100315.81;;;17.66;52.64
68822;BME280;55834;50.870;4.606;2022-09-13T03:48:22;100317.81;;;17.62;52.63
68822;BME280;55834;50.870;4.606;2022-09-13T03:50:48;100317.25;;;17.71;52.14
68822;BME280;55834;50.870;4.606;2022-09-13T03:53:18;100315.97;;;17.77;51.96
68822;BME280;55834;50.870;4.606;2022-09-13T03:55:45;100310.34;;;17.81;51.76
68822;BME280;55834;50.870;4.606;2022-09-13T03:58:16;100309.50;;;17.81;52.48
68822;BME280;55834;50.870;4.606;2022-09-13T04:00:42;100306.19;;;17.77;51.80
68822;BME280;55834;50.870;4.606;2022-09-13T04:03:08;100302.56;;;17.64;53.19
68822;BME280;55834;50.870;4.606;2022-09-13T04:05:34;100300.00;;;17.63;53.04
68822;BME280;55834;50.870;4.606;2022-09-13T04:08:00;100298.00;;;17.66;52.60
68822;BME280;55834;50.870;4.606;2022-09-13T04:10:26;100297.03;;;17.67;52.42
68822;BME280;55834;50.870;4.606;2022-09-13T04:12:53;100288.94;;;17.69;52.61
68822;BME280;55834;50.870;4.606;2022-09-13T04:15:19;100289.00;;;17.67;52.56
68822;BME280;55834;50.870;4.606;2022-09-13T04:17:44;100292.31;;;17.71;51.76
68822;BME280;55834;50.870;4.606;2022-09-13T04:20:10;100288.59;;;17.73;51.83
68822;BME280;55834;50.870;4.606;2022-09-13T04:22:35;100292.06;;;17.75;51.45
68822;BME280;55834;50.870;4.606;2022-09-13T04:25:01;100296.44;;;17.76;51.76
68822;BME280;55834;50.870;4.606;2022-09-13T04:27:27;100299.13;;;17.76;51.89
68822;BME280;55834;50.870;4.606;2022-09-13T04:29:53;100291.03;;;17.78;52.03
68822;BME280;55834;50.870;4.606;2022-09-13T04:32:18;100292.84;;;17.63;52.62
68822;BME280;55834;50.870;4.606;2022-09-13T04:34:43;100297.94;;;17.39;53.55
68822;BME280;55834;50.870;4.606;2022-09-13T04:37:09;100293.75;;;17.35;54.20
68822;BME280;55834;50.870;4.606;2022-09-13T04:39:35;100283.34;;;17.45;54.15
68822;BME280;55834;50.870;4.606;2022-09-13T04:42:00;100289.25;;;17.50;53.70
68822;BME280;55834;50.870;4.606;2022-09-13T04:44:26;100280.41;;;17.49;54.18
68822;BME280;55834;50.870;4.606;2022-09-13T04:46:51;100274.84;;;17.52;53.87
68822;BME280;55834;50.870;4.606;2022-09-13T04:49:18;100285.34;;;17.41;53.81
68822;BME280;55834;50.870;4.606;2022-09-13T04:51:46;100285.78;;;17.21;54.36
68822;BME280;55834;50.870;4.606;2022-09-13T04:54:13;100284.06;;;17.34;53.51
68822;BME280;55834;50.870;4.606;2022-09-13T04:56:39;100281.56;;;17.45;54.23
68822;BME280;55834;50.870;4.606;2022-09-13T04:59:04;100288.88;;;17.42;54.09
68822;BME280;55834;50.870;4.606;2022-09-13T05:01:29;100292.03;;;17.48;53.42
68822;BME280;55834;50.870;4.606;2022-09-13T05:03:55;100298.03;;;17.52;52.88
68822;BME280;55834;50.870;4.606;2022-09-13T05:06:21;100305.91;;;17.53;53.41
68822;BME280;55834;50.870;4.606;2022-09-13T05:08:51;100305.50;;;17.59;53.81
68822;BME280;55834;50.870;4.606;2022-09-13T05:11:20;100311.41;;;17.65;53.58
68822;BME280;55834;50.870;4.606;2022-09-13T05:13:53;100310.38;;;17.67;53.24
68822;BME280;55834;50.870;4.606;2022-09-13T05:16:24;100311.13;;;17.69;53.53
68822;BME280;55834;50.870;4.606;2022-09-13T05:18:50;100307.69;;;17.67;53.75
68822;BME280;55834;50.870;4.606;2022-09-13T05:21:16;100317.59;;;17.65;53.47
68822;BME280;55834;50.870;4.606;2022-09-13T05:23:41;100327.34;;;17.66;54.41
68822;BME280;55834;50.870;4.606;2022-09-13T05:26:07;100328.19;;;17.67;54.74
68822;BME280;55834;50.870;4.606;2022-09-13T05:28:34;100324.56;;;17.68;54.52
68822;BME280;55834;50.870;4.606;2022-09-13T05:31:09;100328.41;;;17.64;54.56
68822;BME280;55834;50.870;4.606;2022-09-13T05:33:37;100326.69;;;17.63;54.05
68822;BME280;55834;50.870;4.606;2022-09-13T05:36:03;100335.66;;;17.62;54.53
68822;BME280;55834;50.870;4.606;2022-09-13T05:38:29;100337.19;;;17.66;54.39
68822;BME280;55834;50.870;4.606;2022-09-13T05:40:59;100330.31;;;17.62;53.37
68822;BME280;55834;50.870;4.606;2022-09-13T05:43:26;100332.81;;;17.50;53.67
68822;BME280;55834;50.870;4.606;2022-09-13T05:46:05;100328.81;;;17.57;53.99
68822;BME280;55834;50.870;4.606;2022-09-13T05:48:32;100331.94;;;17.64;54.22
68822;BME280;55834;50.870;4.606;2022-09-13T05:51:05;100335.34;;;17.66;54.73
68822;BME280;55834;50.870;4.606;2022-09-13T05:53:31;100334.50;;;17.66;54.97
68822;BME280;55834;50.870;4.606;2022-09-13T05:55:57;100327.34;;;17.66;55.13
68822;BME280;55834;50.870;4.606;2022-09-13T05:58:23;100330.03;;;17.66;54.80
68822;BME280;55834;50.870;4.606;2022-09-13T06:00:52;100334.78;;;17.61;54.75
68822;BME280;55834;50.870;4.606;2022-09-13T06:03:19;100334.50;;;17.66;54.37
68822;BME280;55834;50.870;4.606;2022-09-13T06:05:44;100327.03;;;17.71;54.00
68822;BME280;55834;50.870;4.606;2022-09-13T06:08:10;100331.53;;;17.70;54.48
68822;BME280;55834;50.870;4.606;2022-09-13T06:10:36;100332.56;;;17.68;55.18
68822;BME280;55834;50.870;4.606;2022-09-13T06:13:01;100338.69;;;17.70;54.34
68822;BME280;55834;50.870;4.606;2022-09-13T06:15:28;100332.97;;;17.76;54.54
68822;BME280;55834;50.870;4.606;2022-09-13T06:17:53;100341.75;;;17.78;54.73
68822;BME280;55834;50.870;4.606;2022-09-13T06:20:19;100332.00;;;17.77;54.60
68822;BME280;55834;50.870;4.606;2022-09-13T06:22:46;100328.19;;;17.81;54.90
68822;BME280;55834;50.870;4.606;2022-09-13T06:25:12;100331.53;;;17.85;54.96
68822;BME280;55834;50.870;4.606;2022-09-13T06:27:37;100344.09;;;17.83;55.75
68822;BME280;55834;50.870;4.606;2022-09-13T06:30:03;100335.16;;;17.84;55.62
68822;BME280;55834;50.870;4.606;2022-09-13T06:32:29;100342.13;;;17.86;54.86
68822;BME280;55834;50.870;4.606;2022-09-13T06:34:54;100338.28;;;17.90;55.02
68822;BME280;55834;50.870;4.606;2022-09-13T06:37:20;100330.06;;;17.93;55.26
68822;BME280;55834;50.870;4.606;2022-09-13T06:39:46;100330.06;;;17.93;55.41
68822;BME280;55834;50.870;4.606;2022-09-13T06:42:11;100328.22;;;17.94;54.70
68822;BME280;55834;50.870;4.606;2022-09-13T06:44:36;100330.63;;;17.98;55.14
68822;BME280;55834;50.870;4.606;2022-09-13T06:47:02;100331.25;;;18.02;55.35
68822;BME280;55834;50.870;4.606;2022-09-13T06:49:27;100333.72;;;18.05;54.78
68822;BME280;55834;50.870;4.606;2022-09-13T06:51:53;100332.69;;;18.08;54.73
68822;BME280;55834;50.870;4.606;2022-09-13T06:54:18;100334.94;;;18.14;54.32
68822;BME280;55834;50.870;4.606;2022-09-13T06:56:44;100329.19;;;18.20;53.70
68822;BME280;55834;50.870;4.606;2022-09-13T06:59:09;100326.97;;;18.26;53.83
68822;BME280;55834;50.870;4.606;2022-09-13T07:01:37;100324.63;;;18.35;54.03
68822;BME280;55834;50.870;4.606;2022-09-13T07:04:06;100310.66;;;18.44;53.52
68822;BME280;55834;50.870;4.606;2022-09-13T07:06:33;100313.78;;;18.51;53.28
68822;BME280;55834;50.870;4.606;2022-09-13T07:09:00;100308.78;;;18.59;53.40
68822;BME280;55834;50.870;4.606;2022-09-13T07:11:29;100310.03;;;18.66;53.75
68822;BME280;55834;50.870;4.606;2022-09-13T07:13:56;100306.31;;;18.81;54.06
68822;BME280;55834;50.870;4.606;2022-09-13T07:16:25;100305.13;;;18.98;53.46
68822;BME280;55834;50.870;4.606;2022-09-13T07:19:01;100316.38;;;19.16;53.16
68822;BME280;55834;50.870;4.606;2022-09-13T07:21:29;100315.28;;;19.31;52.77
68822;BME280;55834;50.870;4.606;2022-09-13T07:23:55;100319.75;;;19.44;53.11
68822;BME280;55834;50.870;4.606;2022-09-13T07:26:21;100324.56;;;19.51;52.87
68822;BME280;55834;50.870;4.606;2022-09-13T07:28:50;100324.97;;;19.58;52.63
68822;BME280;55834;50.870;4.606;2022-09-13T07:31:18;100323.75;;;19.62;52.31
68822;BME280;55834;50.870;4.606;2022-09-13T07:33:46;100327.72;;;19.69;52.14
68822;BME280;55834;50.870;4.606;2022-09-13T07:36:12;100325.44;;;19.76;51.18
68822;BME280;55834;50.870;4.606;2022-09-13T07:38:42;100320.69;;;19.79;51.01
68822;BME280;55834;50.870;4.606;2022-09-13T07:41:11;100313.31;;;19.83;51.08
68822;BME280;55834;50.870;4.606;2022-09-13T07:43:37;100320.88;;;19.89;51.07
68822;BME280;55834;50.870;4.606;2022-09-13T07:46:07;100323.25;;;19.94;50.96
68822;BME280;55834;50.870;4.606;2022-09-13T07:48:36;100324.13;;;19.94;50.95
68822;BME280;55834;50.870;4.606;2022-09-13T07:51:06;100327.78;;;19.80;51.17
68822;BME280;55834;50.870;4.606;2022-09-13T07:53:34;100332.63;;;19.75;51.41
68822;BME280;55834;50.870;4.606;2022-09-13T07:58:29;100343.50;;;19.98;50.96
68822;BME280;55834;50.870;4.606;2022-09-13T08:01:01;100344.25;;;20.00;50.33
68822;BME280;55834;50.870;4.606;2022-09-13T08:03:28;100350.91;;;20.18;50.45
68822;BME280;55834;50.870;4.606;2022-09-13T08:05:54;100353.53;;;20.42;50.16
68822;BME280;55834;50.870;4.606;2022-09-13T08:08:19;100357.50;;;20.61;50.72
68822;BME280;55834;50.870;4.606;2022-09-13T08:10:45;100356.13;;;20.79;49.79
68822;BME280;55834;50.870;4.606;2022-09-13T08:13:10;100353.31;;;20.92;49.87
68822;BME280;55834;50.870;4.606;2022-09-13T08:15:36;100352.63;;;21.01;49.19
68822;BME280;55834;50.870;4.606;2022-09-13T08:18:01;100350.41;;;21.06;49.16
68822;BME280;55834;50.870;4.606;2022-09-13T08:20:26;100347.03;;;21.15;49.30
68822;BME280;55834;50.870;4.606;2022-09-13T08:22:52;100345.53;;;21.23;48.96
68822;BME280;55834;50.870;4.606;2022-09-13T08:25:17;100343.34;;;21.28;48.08
68822;BME280;55834;50.870;4.606;2022-09-13T08:27:42;100343.00;;;21.32;48.76
68822;BME280;55834;50.870;4.606;2022-09-13T08:30:08;100346.44;;;21.34;48.99
68822;BME280;55834;50.870;4.606;2022-09-13T08:32:33;100352.41;;;21.38;48.21
68822;BME280;55834;50.870;4.606;2022-09-13T08:34:59;100347.88;;;21.38;48.34
68822;BME280;55834;50.870;4.606;2022-09-13T08:37:24;100355.09;;;21.38;48.89
68822;BME280;55834;50.870;4.606;2022-09-13T08:39:49;100349.72;;;21.38;47.65
68822;BME280;55834;50.870;4.606;2022-09-13T08:42:45;100348.03;;;21.37;48.30
68822;BME280;55834;50.870;4.606;2022-09-13T08:45:14;100349.72;;;21.38;47.93
68822;BME280;55834;50.870;4.606;2022-09-13T08:47:43;100353.88;;;21.42;48.10
68822;BME280;55834;50.870;4.606;2022-09-13T08:50:32;100351.06;;;21.44;47.99
68822;BME280;55834;50.870;4.606;2022-09-13T08:55:48;100342.66;;;21.48;48.14
68822;BME280;55834;50.870;4.606;2022-09-13T09:00:44;100343.34;;;21.61;48.00
68822;BME280;55834;50.870;4.606;2022-09-13T09:05:48;100344.66;;;21.78;47.48
68822;BME280;55834;50.870;4.606;2022-09-13T09:10:58;100348.69;;;21.95;46.37
68822;BME280;55834;50.870;4.606;2022-09-13T09:15:54;100337.13;;;22.16;46.05
68822;BME280;55834;50.870;4.606;2022-09-13T09:18:32;100341.28;;;22.20;44.70
68822;BME280;55834;50.870;4.606;2022-09-13T09:21:00;100335.56;;;22.02;45.33
68822;BME280;55834;50.870;4.606;2022-09-13T09:23:31;100323.19;;;21.67;44.73
68822;BME280;55834;50.870;4.606;2022-09-13T09:26:24;100316.97;;;21.55;45.93
68822;BME280;55834;50.870;4.606;2022-09-13T09:29:00;100307.78;;;21.80;46.38
68822;BME280;55834;50.870;4.606;2022-09-13T09:37:24;100301.41;;;22.46;45.85
68822;BME280;55834;50.870;4.606;2022-09-13T09:39:53;100288.88;;;22.56;45.22
68822;BME280;55834;50.870;4.606;2022-09-13T09:42:25;100299.44;;;22.27;43.26
68822;BME280;55834;50.870;4.606;2022-09-13T09:44:54;100293.78;;;22.51;44.30
68822;BME280;55834;50.870;4.606;2022-09-13T09:47:22;100294.59;;;22.63;44.20
68822;BME280;55834;50.870;4.606;2022-09-13T09:50:10;100293.56;;;22.75;44.02
68822;BME280;55834;50.870;4.606;2022-09-13T10:00:26;100291.63;;;22.87;44.40
68822;BME280;55834;50.870;4.606;2022-09-13T10:02:56;100292.47;;;22.87;45.36
68822;BME280;55834;50.870;4.606;2022-09-13T10:05:23;100291.16;;;22.82;45.70
68822;BME280;55834;50.870;4.606;2022-09-13T10:08:01;100274.84;;;23.04;44.86
68822;BME280;55834;50.870;4.606;2022-09-13T10:10:51;100268.06;;;23.10;43.50
68822;BME280;55834;50.870;4.606;2022-09-13T10:13:20;100267.34;;;23.08;43.65
68822;BME280;55834;50.870;4.606;2022-09-13T10:15:57;100265.66;;;23.07;44.42
68822;BME280;55834;50.870;4.606;2022-09-13T10:18:25;100261.84;;;23.19;44.33
68822;BME280;55834;50.870;4.606;2022-09-13T10:23:35;100255.44;;;23.10;43.46
68822;BME280;55834;50.870;4.606;2022-09-13T10:28:30;100255.94;;;23.25;43.55
68822;BME280;55834;50.870;4.606;2022-09-13T10:31:16;100261.78;;;23.30;43.51
68822;BME280;55834;50.870;4.606;2022-09-13T10:36:17;100263.19;;;23.34;41.56
68822;BME280;55834;50.870;4.606;2022-09-13T10:41:29;100278.13;;;23.08;43.75
68822;BME280;55834;50.870;4.606;2022-09-13T10:43:57;100275.16;;;23.20;42.87
68822;BME280;55834;50.870;4.606;2022-09-13T10:46:23;100266.72;;;23.25;42.85
68822;BME280;55834;50.870;4.606;2022-09-13T10:48:49;100266.16;;;23.22;41.58
68822;BME280;55834;50.870;4.606;2022-09-13T10:56:36;100271.06;;;23.16;41.25
68822;BME280;55834;50.870;4.606;2022-09-13T10:59:24;100288.38;;;23.24;41.41
68822;BME280;55834;50.870;4.606;2022-09-13T11:02:19;100288.75;;;22.79;38.93
68822;BME280;55834;50.870;4.606;2022-09-13T11:10:23;100273.66;;;22.97;40.97
68822;BME280;55834;50.870;4.606;2022-09-13T11:15:38;100278.13;;;23.38;41.40
68822;BME280;55834;50.870;4.606;2022-09-13T11:21:02;100276.81;;;23.42;41.36
68822;BME280;55834;50.870;4.606;2022-09-13T11:26:27;100276.88;;;23.72;40.55
68822;BME280;55834;50.870;4.606;2022-09-13T11:29:07;100267.00;;;23.32;40.11
68822;BME280;55834;50.870;4.606;2022-09-13T11:39:38;100268.84;;;23.22;41.82
68822;BME280;55834;50.870;4.606;2022-09-13T11:42:35;100269.63;;;23.53;41.07
68822;BME280;55834;50.870;4.606;2022-09-13T11:54:06;100266.84;;;24.03;40.67
68822;BME280;55834;50.870;4.606;2022-09-13T11:56:42;100270.66;;;24.10;41.44
68822;BME280;55834;50.870;4.606;2022-09-13T12:01:54;100271.84;;;23.28;41.93
68822;BME280;55834;50.870;4.606;2022-09-13T12:04:24;100268.78;;;23.62;39.86
68822;BME280;55834;50.870;4.606;2022-09-13T12:07:02;100269.41;;;23.85;40.63
68822;BME280;55834;50.870;4.606;2022-09-13T12:09:33;100270.13;;;23.97;39.80
68822;BME280;55834;50.870;4.606;2022-09-13T12:12:06;100276.06;;;24.10;40.29
68822;BME280;55834;50.870;4.606;2022-09-13T12:14:42;100267.28;;;24.18;40.34
68822;BME280;55834;50.870;4.606;2022-09-13T12:19:53;100255.22;;;24.12;40.91
68822;BME280;55834;50.870;4.606;2022-09-13T12:22:23;100262.00;;;24.16;41.08
68822;BME280;55834;50.870;4.606;2022-09-13T12:24:52;100251.63;;;24.21;41.10
68822;BME280;55834;50.870;4.606;2022-09-13T12:27:27;100248.97;;;24.12;40.47
68822;BME280;55834;50.870;4.606;2022-09-13T12:29:59;100251.66;;;24.12;42.06
68822;BME280;55834;50.870;4.606;2022-09-13T12:32:26;100248.53;;;24.16;41.82
68822;BME280;55834;50.870;4.606;2022-09-13T12:35:07;100244.69;;;24.19;40.91
68822;BME280;55834;50.870;4.606;2022-09-13T12:41:08;100245.13;;;24.14;41.91
68822;BME280;55834;50.870;4.606;2022-09-13T12:43:45;100249.41;;;24.17;42.00
68822;BME280;55834;50.870;4.606;2022-09-13T12:46:20;100248.53;;;24.16;41.47
68822;BME280;55834;50.870;4.606;2022-09-13T12:55:10;100233.00;;;23.31;40.78
68822;BME280;55834;50.870;4.606;2022-09-13T13:00:25;100237.63;;;23.19;41.52
68822;BME280;55834;50.870;4.606;2022-09-13T13:03:11;100232.88;;;23.52;42.21
68822;BME280;55834;50.870;4.606;2022-09-13T13:05:47;100247.38;;;23.70;41.00
68822;BME280;55834;50.870;4.606;2022-09-13T13:08:19;100238.88;;;23.75;42.00
68822;BME280;55834;50.870;4.606;2022-09-13T13:11:10;100237.63;;;22.58;44.80
68822;BME280;55834;50.870;4.606;2022-09-13T13:13:37;100239.59;;;22.14;45.38
68822;BME280;55834;50.870;4.606;2022-09-13T13:18:49;100256.94;;;21.56;47.30
68822;BME280;55834;50.870;4.606;2022-09-13T13:26:50;100246.81;;;22.13;47.96
68822;BME280;55834;50.870;4.606;2022-09-13T13:29:31;100242.78;;;21.21;49.73
68822;BME280;55834;50.870;4.606;2022-09-13T13:36:51;100243.53;;;21.45;50.83
68822;BME280;55834;50.870;4.606;2022-09-13T13:41:54;100254.25;;;22.21;48.48
68822;BME280;55834;50.870;4.606;2022-09-13T13:59:47;100270.97;;;23.28;49.52
68822;BME280;55834;50.870;4.606;2022-09-13T14:02:16;100260.78;;;23.31;50.94
68822;BME280;55834;50.870;4.606;2022-09-13T14:23:46;100284.78;;;22.83;50.46
68822;BME280;55834;50.870;4.606;2022-09-13T14:26:11;100280.00;;;22.86;49.75
68822;BME280;55834;50.870;4.606;2022-09-13T14:28:37;100281.16;;;22.93;49.75
68822;BME280;55834;50.870;4.606;2022-09-13T14:31:03;100285.78;;;22.82;49.76
68822;BME280;55834;50.870;4.606;2022-09-13T14:33:36;100284.22;;;22.79;48.21
68822;BME280;55834;50.870;4.606;2022-09-13T14:36:16;100279.41;;;22.83;49.30
68822;BME280;55834;50.870;4.606;2022-09-13T14:38:51;100274.63;;;22.86;49.19
68822;BME280;55834;50.870;4.606;2022-09-13T14:41:20;100267.22;;;22.79;50.61
68822;BME280;55834;50.870;4.606;2022-09-13T14:43:48;100267.84;;;22.61;50.40
68822;BME280;55834;50.870;4.606;2022-09-13T14:46:24;100269.00;;;22.47;51.70
68822;BME280;55834;50.870;4.606;2022-09-13T14:48:55;100258.50;;;22.44;50.74
68822;BME280;55834;50.870;4.606;2022-09-13T14:51:27;100252.81;;;22.17;51.15
68822;BME280;55834;50.870;4.606;2022-09-13T14:53:59;100248.84;;;21.68;52.12
68822;BME280;55834;50.870;4.606;2022-09-13T14:58:59;100244.59;;;19.95;58.71
68822;BME280;55834;50.870;4.606;2022-09-13T15:01:34;100234.31;;;19.65;60.90
68822;BME280;55834;50.870;4.606;2022-09-13T15:04:01;100218.31;;;20.80;56.84
68822;BME280;55834;50.870;4.606;2022-09-13T15:06:30;100219.72;;;21.29;55.29
68822;BME280;55834;50.870;4.606;2022-09-13T15:09:43;100226.97;;;21.61;54.28
68822;BME280;55834;50.870;4.606;2022-09-13T15:11:54;100230.69;;;21.81;54.19
68822;BME280;55834;50.870;4.606;2022-09-13T15:16:57;100240.75;;;22.11;54.26
68822;BME280;55834;50.870;4.606;2022-09-13T15:19:32;100235.16;;;22.24;54.42
68822;BME280;55834;50.870;4.606;2022-09-13T15:24:31;100242.84;;;22.28;54.40
68822;BME280;55834;50.870;4.606;2022-09-13T15:27:03;100239.59;;;22.14;53.74
68822;BME280;55834;50.870;4.606;2022-09-13T15:29:29;100236.78;;;22.15;52.97
68822;BME280;55834;50.870;4.606;2022-09-13T15:31:59;100234.16;;;22.25;53.12
68822;BME280;55834;50.870;4.606;2022-09-13T15:34:24;100227.22;;;22.22;53.04
68822;BME280;55834;50.870;4.606;2022-09-13T15:37:08;100224.88;;;22.29;53.15
68822;BME280;55834;50.870;4.606;2022-09-13T15:40:04;100226.06;;;21.83;53.52
68822;BME280;55834;50.870;4.606;2022-09-13T15:42:31;100227.50;;;21.55;55.11
68822;BME280;55834;50.870;4.606;2022-09-13T15:44:57;100219.84;;;21.28;54.27
68822;BME280;55834;50.870;4.606;2022-09-13T15:47:22;100233.31;;;21.71;53.69
68822;BME280;55834;50.870;4.606;2022-09-13T15:49:49;100237.03;;;21.91;54.94
68822;BME280;55834;50.870;4.606;2022-09-13T15:52:16;100240.91;;;21.98;54.01
68822;BME280;55834;50.870;4.606;2022-09-13T15:54:42;100234.09;;;22.15;54.15
68822;BME280;55834;50.870;4.606;2022-09-13T15:57:20;100230.38;;;22.27;54.06
68822;BME280;55834;50.870;4.606;2022-09-13T15:59:46;100228.97;;;22.33;54.09
68822;BME280;55834;50.870;4.606;2022-09-13T16:04:49;100215.53;;;22.33;53.50
68822;BME280;55834;50.870;4.606;2022-09-13T16:07:15;100209.78;;;22.38;53.29
68822;BME280;55834;50.870;4.606;2022-09-13T16:09:41;100205.69;;;22.43;52.29
68822;BME280;55834;50.870;4.606;2022-09-13T16:12:06;100197.38;;;22.46;52.31
68822;BME280;55834;50.870;4.606;2022-09-13T16:14:32;100200.19;;;22.45;51.34
68822;BME280;55834;50.870;4.606;2022-09-13T16:17:00;100203.72;;;22.45;52.33
68822;BME280;55834;50.870;4.606;2022-09-13T16:19:28;100204.72;;;22.44;52.64
68822;BME280;55834;50.870;4.606;2022-09-13T16:21:54;100202.88;;;22.45;53.35
68822;BME280;55834;50.870;4.606;2022-09-13T16:24:19;100199.31;;;22.44;52.83